首页
METAR-TAF:

METAR-TAF

机场 :

辛菲羅波爾國際機場

辛菲罗波尔, 俄罗斯

纬度: 45-03-08N, 经度: 033-58-31E, 海拔: 195米

当前天气观测

该预报发布于36分钟前的01:00 UTC
风速4节,风向东南
温度 15°C
湿度 88%
气压 1007 hPa
能见度10公里或以上
少量云层高于3300英尺, 积雨云.

METAR: URFF 250100Z 14002MPS 9999 FEW033CB 15/13 Q1007 R19/290295 TEMPO -TSRA

时间: 04:36 (01:36 UTC)

预报

该预报发布于2小时和43分钟前的22:53 UTC
预报有效从25日的 00点(UTC)到 25日的 24点(UTC)
风速6节,风向南转西南
能見度: 3100
多云层高于1100英尺
多云层高于2000英尺, 积雨云.
轻雾
短暂存在
从 25日的 00点(UTC)到 25日的 06点(UTC)
雷暴, 小雨
从 25日的 0600点(UTC)
风速14节,风向西转西南,有时为23节阵风
能見度: 5000
多云层高于1100英尺
多云层高于2000英尺, 积雨云.
小阵雨, 轻雾
短暂存在
从 25日的 06点(UTC)到 25日的 18点(UTC)
能見度: 0800
散云层高于300英尺
多云层高于2000英尺, 积雨云.
雷暴, 大雨

TAF: URFF 242253Z 2500/2524 20003MPS 3100 BR BKN011 BKN020CB TEMPO 2500/2506 -TSRA FM250600 25007G12MPS 5000 -SHRA BR BKN011 BKN020CB TEMPO 2506/2518 0800 +TSRA SCT003 BKN020CB

超过4000个机场的气象观测和天气预报(METAR&TAF报告)。

可查询的气象台以黄色和红色小点在地图上表示。

将鼠标移到小点上方,可查看气象台名称。

然后点击查看天气观测和预报。

如需切换地图:点击带黑十字的绿色按钮放大地图;点击带横线的绿色按钮缩小地图;或者点击绿色箭头查看邻近地区的地图。


METAR-TAF: